Time;durP1;ratioP1;P1;durP2;ratioP2;P2;SDS_P1;SDS_P2;PMS_P1;PMS_P2;Temp;Humidity;BMP_temperature;BMP_pressure;BME280_temperature;BME280_humidity;BME280_pressure;Samples;Min_cycle;Max_cycle;Signal;HPM_P1;HPM_P2
2021/03/11 00:01:42;;;;;;;14.02;9.63;;;9.70;57.20;;;;;;6165832;28;20501;-82
2021/03/11 00:04:44;;;;;;;14.50;9.35;;;9.70;57.10;;;;;;6175964;28;20065;-82
2021/03/11 00:07:45;;;;;;;11.77;8.95;;;9.70;57.40;;;;;;6202476;28;20065;-82
2021/03/11 00:10:46;;;;;;;15.68;10.27;;;9.70;58.20;;;;;;6198208;28;20511;-82
2021/03/11 00:13:48;;;;;;;13.10;9.60;;;9.70;58.90;;;;;;6190093;28;20057;-81
2021/03/11 00:16:50;;;;;;;13.05;9.15;;;9.70;59.40;;;;;;6192512;28;20133;-79
2021/03/11 00:19:51;;;;;;;11.18;8.15;;;9.60;59.30;;;;;;6192035;28;20050;-83
2021/03/11 00:22:53;;;;;;;14.10;8.82;;;9.60;58.60;;;;;;6193571;28;20042;-80
2021/03/11 00:25:55;;;;;;;13.00;8.02;;;9.60;58.80;;;;;;6169454;28;20027;-81
2021/03/11 00:28:56;;;;;;;7.80;5.95;;;9.60;59.50;;;;;;6173918;28;20043;-79
2021/03/11 00:31:59;;;;;;;11.63;6.25;;;9.60;59.60;;;;;;6197416;28;20046;-80
2021/03/11 00:35:00;;;;;;;13.95;7.28;;;9.60;59.20;;;;;;6197363;28;20157;-81
2021/03/11 00:38:02;;;;;;;12.40;5.30;;;9.60;60.10;;;;;;6193702;28;20074;-81
2021/03/11 00:41:03;;;;;;;11.77;6.10;;;9.60;59.40;;;;;;6194704;28;20058;-81
2021/03/11 00:44:05;;;;;;;8.02;4.82;;;9.60;59.50;;;;;;6194835;28;20100;-81
2021/03/11 00:47:08;;;;;;;5.55;4.05;;;9.60;59.00;;;;;;6189419;28;20043;-80
2021/03/11 00:50:12;;;;;;;7.22;5.47;;;9.70;59.20;;;;;;6165561;28;20576;-80
2021/03/11 00:53:13;;;;;;;7.70;4.93;;;9.70;58.50;;;;;;6182446;28;20120;-81
2021/03/11 00:56:14;;;;;;;9.73;4.85;;;9.70;58.30;;;;;;6192262;28;20062;-80
2021/03/11 00:59:16;;;;;;;7.07;4.85;;;9.70;58.00;;;;;;6197497;28;20051;-80
2021/03/11 01:02:18;;;;;;;5.70;3.88;;;9.80;58.30;;;;;;6191743;28;20047;-82
2021/03/11 01:05:21;;;;;;;8.30;5.38;;;9.80;58.00;;;;;;6177796;28;20047;-80
2021/03/11 01:08:22;;;;;;;11.75;5.57;;;9.80;57.90;;;;;;6176496;28;20419;-81
2021/03/11 01:11:24;;;;;;;7.38;5.47;;;9.80;57.70;;;;;;6198351;28;20460;-82
2021/03/11 01:14:25;;;;;;;5.93;4.85;;;9.80;57.30;;;;;;6186608;28;20054;-80
2021/03/11 01:17:27;;;;;;;4.95;4.03;;;9.80;57.10;;;;;;6190245;28;20555;-81
2021/03/11 01:20:29;;;;;;;6.57;4.15;;;9.80;57.10;;;;;;6169675;28;20071;-79
2021/03/11 01:23:30;;;;;;;5.80;3.67;;;9.90;57.20;;;;;;6167362;28;20057;-80
2021/03/11 01:26:32;;;;;;;5.90;3.60;;;9.90;57.10;;;;;;6187617;28;20440;-81
2021/03/11 01:29:33;;;;;;;6.57;3.70;;;9.90;57.20;;;;;;6198674;28;20085;-80
2021/03/11 01:32:35;;;;;;;4.40;3.10;;;9.90;57.50;;;;;;6192040;28;20062;-82
2021/03/11 01:35:36;;;;;;;3.78;3.30;;;9.80;57.20;;;;;;6184154;28;20132;-81
2021/03/11 01:38:38;;;;;;;6.00;3.72;;;9.90;57.50;;;;;;6171724;28;20515;-82
2021/03/11 01:41:39;;;;;;;3.00;2.30;;;9.90;57.50;;;;;;6184682;28;20062;-82
2021/03/11 01:44:40;;;;;;;6.78;4.00;;;9.90;57.60;;;;;;6199045;28;20046;-82
2021/03/11 01:47:42;;;;;;;3.38;2.75;;;9.80;57.50;;;;;;6185239;28;20057;-82
2021/03/11 01:50:44;;;;;;;3.55;2.72;;;9.90;57.90;;;;;;6197882;28;20408;-82
2021/03/11 01:53:46;;;;;;;3.85;3.13;;;9.90;58.00;;;;;;6171722;28;20046;-81
2021/03/11 01:56:47;;;;;;;5.20;3.13;;;9.80;58.30;;;;;;6176140;28;20046;-82
2021/03/11 01:59:49;;;;;;;8.70;3.22;;;9.90;58.40;;;;;;6200264;28;20451;-82
2021/03/11 02:02:52;;;;;;;6.80;3.63;;;9.80;58.30;;;;;;6195839;28;20070;-82
2021/03/11 02:05:53;;;;;;;8.93;2.90;;;9.80;58.30;;;;;;6193091;28;20580;-82
2021/03/11 02:08:55;;;;;;;4.55;3.22;;;9.90;58.30;;;;;;6188834;28;20090;-82
2021/03/11 02:12:02;;;;;;;3.25;2.88;;;9.80;57.90;;;;;;6190988;28;20130;-82
2021/03/11 02:15:10;;;;;;;4.68;3.78;;;9.90;57.80;;;;;;6191716;28;20050;-81
2021/03/11 02:18:16;;;;;;;4.80;4.18;;;9.80;57.80;;;;;;6169512;28;20079;-80
2021/03/11 02:21:22;;;;;;;8.45;4.90;;;9.80;57.80;;;;;;6189348;28;20128;-81
2021/03/11 02:24:38;;;;;;;7.03;4.78;;;9.80;57.60;;;;;;6188616;28;20539;-81
2021/03/11 02:28:12;;;;;;;11.23;5.32;;;9.90;58.40;;;;;;6195678;28;20061;-80
2021/03/11 02:31:15;;;;;;;8.75;6.18;;;9.90;60.60;;;;;;6192472;28;20086;-81
2021/03/11 02:34:18;;;;;;;10.63;6.22;;;9.80;61.30;;;;;;6169497;28;20497;-80
2021/03/11 02:37:26;;;;;;;10.15;6.03;;;9.70;61.00;;;;;;6170735;28;20402;-80
2021/03/11 02:40:29;;;;;;;12.95;7.82;;;9.70;60.90;;;;;;6175018;28;20054;-81
2021/03/11 02:43:31;;;;;;;11.00;8.68;;;9.70;60.60;;;;;;6174191;28;20070;-83
2021/03/11 02:46:34;;;;;;;10.00;7.15;;;9.70;59.90;;;;;;6175229;28;20050;-82
2021/03/11 02:49:37;;;;;;;15.15;8.02;;;9.70;59.90;;;;;;6173482;28;20047;-82
2021/03/11 02:52:39;;;;;;;12.95;8.23;;;9.80;59.40;;;;;;6167129;28;20047;-80
2021/03/11 02:55:42;;;;;;;13.35;8.25;;;9.90;59.20;;;;;;6168698;28;20122;-82
2021/03/11 02:58:44;;;;;;;12.02;8.60;;;9.90;58.90;;;;;;6169885;28;20129;-79
2021/03/11 03:01:48;;;;;;;12.18;8.35;;;10.00;58.50;;;;;;6171272;28;20059;-81
2021/03/11 03:04:53;;;;;;;12.95;9.23;;;10.00;58.40;;;;;;6178311;28;20047;-84
2021/03/11 03:07:55;;;;;;;11.90;8.43;;;10.00;57.90;;;;;;6164779;28;20123;-81
2021/03/11 03:10:58;;;;;;;15.25;8.25;;;10.00;57.60;;;;;;6165907;28;20066;-81
2021/03/11 03:13:59;;;;;;;11.98;7.85;;;10.10;57.60;;;;;;6170922;28;20068;-81
2021/03/11 03:17:02;;;;;;;10.60;7.72;;;10.10;57.70;;;;;;6171443;28;20051;-82
2021/03/11 03:20:07;;;;;;;14.20;9.23;;;10.20;57.20;;;;;;6186061;28;20050;-81
2021/03/11 03:23:09;;;;;;;12.60;8.68;;;10.20;56.90;;;;;;6204345;28;20074;-80
2021/03/11 03:26:10;;;;;;;16.60;8.77;;;10.20;56.80;;;;;;6190900;28;20070;-82
2021/03/11 03:29:12;;;;;;;15.30;8.35;;;10.30;56.70;;;;;;6188757;28;20054;-82
2021/03/11 03:32:14;;;;;;;11.45;7.75;;;10.30;57.40;;;;;;6201951;28;20106;-82
2021/03/11 03:35:17;;;;;;;11.65;7.07;;;10.30;56.90;;;;;;6188515;28;20129;-81
2021/03/11 03:38:19;;;;;;;10.18;7.85;;;10.40;57.00;;;;;;6192659;28;20089;-81
2021/03/11 03:41:21;;;;;;;12.25;7.68;;;10.40;57.00;;;;;;6189931;28;20055;-81
2021/03/11 03:44:25;;;;;;;10.20;7.03;;;10.40;57.20;;;;;;6194227;28;20067;-82
2021/03/11 03:47:29;;;;;;;11.00;7.30;;;10.40;57.50;;;;;;6193979;28;20054;-83
2021/03/11 03:50:31;;;;;;;13.30;7.53;;;10.40;57.60;;;;;;6168209;28;20536;-81
2021/03/11 03:53:38;;;;;;;11.48;7.78;;;10.40;57.90;;;;;;6190609;28;20508;-83
2021/03/11 03:56:42;;;;;;;8.70;6.05;;;10.50;58.30;;;;;;6185457;28;20051;-79
2021/03/11 03:59:45;;;;;;;9.25;6.50;;;10.50;58.60;;;;;;6185038;28;20066;-82
2021/03/11 04:02:49;;;;;;;10.88;7.32;;;10.50;58.80;;;;;;6182936;28;20073;-82
2021/03/11 04:05:54;;;;;;;10.27;6.88;;;10.50;59.10;;;;;;6166684;28;20154;-78
2021/03/11 04:08:56;;;;;;;7.75;5.68;;;10.50;59.40;;;;;;6173216;28;20055;-81
2021/03/11 04:11:58;;;;;;;10.48;7.53;;;10.50;59.40;;;;;;6183891;28;20094;-80
2021/03/11 04:15:01;;;;;;;12.27;6.55;;;10.50;59.50;;;;;;6182587;28;20082;-82
2021/03/11 04:18:04;;;;;;;10.05;6.05;;;10.60;59.90;;;;;;6191159;28;20043;-82
2021/03/11 04:21:06;;;;;;;9.43;6.03;;;10.60;59.60;;;;;;6166059;28;20425;-83
2021/03/11 04:24:10;;;;;;;6.72;5.60;;;10.60;58.80;;;;;;6161937;28;20493;-82
2021/03/11 04:27:12;;;;;;;6.03;4.85;;;10.70;58.70;;;;;;6180474;28;20047;-81
2021/03/11 04:30:14;;;;;;;8.95;5.22;;;10.70;58.50;;;;;;6179927;28;20078;-80
2021/03/11 04:33:16;;;;;;;7.13;5.03;;;10.70;58.40;;;;;;6179117;28;20166;-79
2021/03/11 04:36:18;;;;;;;9.80;6.38;;;10.80;58.20;;;;;;6172253;28;20058;-82
2021/03/11 04:39:20;;;;;;;7.13;5.82;;;10.80;58.40;;;;;;6156346;28;20421;-79
2021/03/11 04:42:22;;;;;;;7.30;5.25;;;10.80;58.10;;;;;;6180068;28;20142;-81
2021/03/11 04:45:23;;;;;;;10.38;6.75;;;10.80;57.90;;;;;;6179540;28;20143;-82
2021/03/11 04:48:27;;;;;;;11.70;6.50;;;10.80;58.30;;;;;;6179376;28;20574;-80
2021/03/11 04:51:29;;;;;;;8.38;5.50;;;10.80;58.10;;;;;;6179467;28;20472;-79
2021/03/11 04:54:31;;;;;;;8.02;5.47;;;10.80;58.20;;;;;;6178481;28;20054;-82
2021/03/11 04:57:32;;;;;;;11.38;7.03;;;10.80;58.00;;;;;;6177953;28;20542;-80
2021/03/11 05:00:37;;;;;;;8.57;5.15;;;10.90;58.10;;;;;;6169961;28;20532;-81
2021/03/11 05:03:44;;;;;;;5.65;4.72;;;10.90;58.30;;;;;;6157627;28;20087;-80
2021/03/11 05:06:45;;;;;;;6.63;4.65;;;10.90;58.60;;;;;;6179151;28;20591;-78
2021/03/11 05:09:47;;;;;;;8.45;4.53;;;10.90;58.80;;;;;;6177968;28;20046;-80
2021/03/11 05:12:48;;;;;;;6.20;4.18;;;10.90;59.40;;;;;;6178494;28;20074;-80
2021/03/11 05:15:49;;;;;;;9.13;4.03;;;10.90;59.80;;;;;;6174593;28;20050;-81
2021/03/11 05:18:52;;;;;;;13.00;4.10;;;10.90;60.30;;;;;;6155196;29;20083;-78
2021/03/11 05:21:53;;;;;;;6.32;3.80;;;10.90;60.60;;;;;;6174231;28;20062;-80
2021/03/11 05:24:55;;;;;;;4.30;3.47;;;10.90;61.20;;;;;;6178925;28;20165;-79
2021/03/11 05:27:56;;;;;;;7.13;3.72;;;10.80;61.70;;;;;;6179617;28;20456;-76
2021/03/11 05:30:57;;;;;;;6.38;4.22;;;10.90;62.20;;;;;;6183472;28;20058;-78
2021/03/11 05:33:59;;;;;;;4.65;3.25;;;10.80;62.70;;;;;;6163737;28;20145;-80
2021/03/11 05:37:01;;;;;;;7.20;3.95;;;10.80;63.00;;;;;;6153947;28;20047;-75
2021/03/11 05:40:05;;;;;;;6.68;4.15;;;10.80;63.30;;;;;;6154437;28;20055;-77
2021/03/11 05:43:08;;;;;;;7.22;3.67;;;10.80;63.50;;;;;;6154324;28;20517;-77
2021/03/11 05:46:11;;;;;;;7.80;5.65;;;10.80;63.50;;;;;;6153644;28;20178;-79
2021/03/11 05:49:15;;;;;;;5.35;3.03;;;10.70;63.50;;;;;;6154047;28;20078;-79
2021/03/11 05:52:16;;;;;;;8.45;4.00;;;10.80;63.60;;;;;;6153033;28;20134;-75
2021/03/11 05:55:18;;;;;;;6.88;4.55;;;10.80;63.60;;;;;;6155432;28;20070;-78
2021/03/11 05:58:20;;;;;;;5.78;2.80;;;10.80;63.70;;;;;;6153481;28;20050;-80
2021/03/11 06:01:24;;;;;;;4.78;3.28;;;10.90;63.70;;;;;;6155068;28;20055;-77
2021/03/11 06:04:27;;;;;;;3.10;2.63;;;10.90;63.70;;;;;;6159429;28;20137;-80
2021/03/11 06:07:29;;;;;;;6.05;2.42;;;10.90;63.70;;;;;;6159559;28;20082;-80
2021/03/11 06:10:31;;;;;;;3.50;2.90;;;10.90;63.80;;;;;;6158928;28;20055;-80
2021/03/11 06:13:32;;;;;;;3.75;2.85;;;10.90;64.40;;;;;;6162346;28;20097;-79
2021/03/11 06:16:37;;;;;;;3.50;2.28;;;10.90;63.90;;;;;;6180428;28;20129;-80
2021/03/11 06:19:39;;;;;;;6.28;3.28;;;11.00;64.00;;;;;;6206096;28;20061;-79
2021/03/11 06:22:40;;;;;;;3.38;2.35;;;11.00;64.20;;;;;;6205734;28;20072;-78
2021/03/11 06:25:42;;;;;;;4.45;2.72;;;11.00;64.00;;;;;;6223977;28;20128;-78
2021/03/11 06:28:55;;;;;;;3.88;2.72;;;11.10;64.00;;;;;;6229510;28;20052;-79
2021/03/11 06:31:58;;;;;;;2.92;2.72;;;11.10;63.90;;;;;;6229981;28;20052;-80
2021/03/11 06:35:00;;;;;;;2.75;2.45;;;11.20;64.00;;;;;;6230250;28;20144;-78
2021/03/11 06:38:02;;;;;;;4.32;3.03;;;11.20;64.00;;;;;;6230169;28;20045;-80
2021/03/11 06:41:03;;;;;;;4.75;2.92;;;11.20;64.10;;;;;;6229927;28;20053;-80
2021/03/11 06:44:05;;;;;;;6.35;2.17;;;11.20;63.90;;;;;;6230827;28;20411;-79
2021/03/11 06:47:08;;;;;;;4.55;2.33;;;11.30;63.80;;;;;;6234460;28;20053;-81
2021/03/11 06:50:10;;;;;;;2.92;2.25;;;11.30;63.90;;;;;;6232264;28;20069;-79
2021/03/11 06:53:12;;;;;;;4.35;2.60;;;11.40;63.80;;;;;;6229257;28;20054;-75
2021/03/11 06:56:22;;;;;;;8.73;3.13;;;11.40;63.70;;;;;;6229688;28;20045;-76
2021/03/11 06:59:23;;;;;;;3.30;2.70;;;11.40;63.60;;;;;;6230004;28;20054;-78
2021/03/11 07:02:27;;;;;;;5.25;2.70;;;11.50;63.70;;;;;;6229350;28;20061;-76
2021/03/11 07:05:29;;;;;;;5.05;2.63;;;11.50;63.40;;;;;;6187657;28;20054;-80
2021/03/11 07:08:31;;;;;;;3.88;2.60;;;11.60;63.00;;;;;;6181060;28;20455;-80
2021/03/11 07:11:33;;;;;;;4.38;2.33;;;11.70;63.10;;;;;;6180501;28;20077;-80
2021/03/11 07:14:34;;;;;;;2.92;2.63;;;11.70;62.80;;;;;;6198138;28;20077;-78
2021/03/11 07:17:37;;;;;;;5.70;2.63;;;11.80;62.70;;;;;;6204095;28;20092;-80
2021/03/11 07:20:39;;;;;;;2.72;2.50;;;11.80;62.70;;;;;;6204847;28;20046;-77
2021/03/11 07:23:45;;;;;;;5.05;2.67;;;11.80;63.30;;;;;;6204190;28;20140;-78
2021/03/11 07:26:59;;;;;;;4.93;1.98;;;11.80;62.80;;;;;;6204149;28;20643;-75
2021/03/11 07:30:05;;;;;;;2.63;2.35;;;11.90;62.90;;;;;;6204772;28;20050;-80
2021/03/11 07:33:07;;;;;;;3.05;2.00;;;11.80;63.00;;;;;;6203947;28;20447;-81
2021/03/11 07:36:10;;;;;;;3.72;2.25;;;11.90;63.20;;;;;;6202417;28;20120;-79
2021/03/11 07:39:12;;;;;;;9.27;2.88;;;11.90;63.20;;;;;;6203950;28;20046;-76
2021/03/11 07:42:14;;;;;;;3.90;2.15;;;12.00;63.40;;;;;;6204880;28;20056;-79
2021/03/11 07:45:15;;;;;;;4.28;2.25;;;12.00;63.50;;;;;;6205874;28;20057;-78
2021/03/11 07:48:16;;;;;;;4.05;2.47;;;12.00;63.70;;;;;;6205001;28;20133;-77
2021/03/11 07:51:19;;;;;;;3.63;2.58;;;12.10;63.90;;;;;;6205157;28;20084;-80
2021/03/11 07:54:21;;;;;;;5.03;2.55;;;12.10;64.00;;;;;;6204797;28;20058;-77
2021/03/11 07:57:22;;;;;;;5.03;2.25;;;12.10;63.90;;;;;;6205739;28;20153;-78
2021/03/11 08:00:26;;;;;;;2.92;2.30;;;12.20;63.90;;;;;;6204688;28;20065;-80
2021/03/11 08:03:29;;;;;;;4.60;2.25;;;12.30;63.80;;;;;;6204238;28;20050;-75
2021/03/11 08:06:31;;;;;;;5.82;2.45;;;12.30;63.80;;;;;;6203058;28;20484;-74
2021/03/11 08:09:36;;;;;;;9.48;2.20;;;12.30;63.80;;;;;;6201785;28;20054;-79
2021/03/11 08:12:39;;;;;;;4.28;2.10;;;12.30;63.70;;;;;;6203115;28;20081;-78
2021/03/11 08:15:40;;;;;;;5.18;2.80;;;12.60;64.30;;;;;;6202129;28;20485;-79
2021/03/11 08:18:43;;;;;;;4.47;2.67;;;12.40;63.40;;;;;;6202911;28;20085;-80
2021/03/11 08:21:45;;;;;;;2.65;2.10;;;12.50;63.30;;;;;;6203182;28;20069;-74
2021/03/11 08:24:48;;;;;;;2.65;2.08;;;12.50;63.30;;;;;;6202259;28;20053;-76
2021/03/11 08:27:49;;;;;;;9.50;2.97;;;12.40;63.20;;;;;;6202174;28;20130;-77
2021/03/11 08:30:52;;;;;;;5.63;2.63;;;12.40;63.40;;;;;;6202143;28;20061;-75
2021/03/11 08:33:53;;;;;;;5.28;2.25;;;12.40;63.20;;;;;;6202475;28;20529;-79
2021/03/11 08:37:13;;;;;;;2.58;2.10;;;12.40;63.20;;;;;;6202120;28;20057;-78
2021/03/11 08:40:33;;;;;;;6.18;2.40;;;12.40;63.40;;;;;;6205392;28;20059;-79
2021/03/11 08:43:52;;;;;;;5.57;2.05;;;12.40;63.60;;;;;;6205566;28;20050;-77
2021/03/11 08:46:53;;;;;;;7.65;2.03;;;12.40;63.80;;;;;;6209393;28;20034;-75
2021/03/11 08:49:54;;;;;;;4.35;2.38;;;12.30;64.00;;;;;;6207431;28;20104;-77
2021/03/11 08:52:57;;;;;;;4.55;2.03;;;12.40;64.10;;;;;;6207877;28;20060;-77
2021/03/11 08:55:58;;;;;;;4.00;2.17;;;12.40;64.30;;;;;;6205119;28;20134;-75
2021/03/11 08:59:01;;;;;;;5.45;1.90;;;12.40;64.30;;;;;;6204206;28;20061;-79
2021/03/11 09:02:02;;;;;;;3.40;2.20;;;12.40;65.70;;;;;;6201614;28;20046;-79
2021/03/11 09:05:05;;;;;;;4.85;1.85;;;12.50;66.20;;;;;;6203179;28;20047;-74
2021/03/11 09:08:11;;;;;;;6.13;1.98;;;12.60;66.50;;;;;;6205171;28;20482;-78
2021/03/11 09:11:14;;;;;;;5.38;1.85;;;12.80;66.80;;;;;;6209901;28;20061;-79
2021/03/11 09:14:15;;;;;;;5.72;2.03;;;12.80;67.20;;;;;;6205054;28;20046;-78
2021/03/11 09:17:18;;;;;;;2.72;1.80;;;12.80;67.20;;;;;;6212965;28;20074;-75
2021/03/11 09:20:19;;;;;;;2.05;1.40;;;12.70;66.10;;;;;;6210798;28;20434;-79
2021/03/11 09:23:33;;;;;;;1.95;1.50;;;12.70;65.70;;;;;;6207574;28;20052;-79
2021/03/11 09:26:34;;;;;;;7.43;1.50;;;12.80;65.30;;;;;;6204574;28;20189;-77
2021/03/11 09:29:36;;;;;;;3.05;1.50;;;12.80;64.40;;;;;;6205492;28;20055;-79
2021/03/11 09:32:39;;;;;;;4.70;3.15;;;13.00;64.10;;;;;;6206734;28;20162;-79
2021/03/11 09:35:41;;;;;;;4.03;2.08;;;13.20;64.00;;;;;;6202598;28;20050;-77
2021/03/11 09:38:44;;;;;;;7.15;1.65;;;13.30;65.50;;;;;;6204454;28;20046;-79
2021/03/11 09:41:45;;;;;;;3.25;1.83;;;13.30;66.80;;;;;;6201795;28;20055;-77
2021/03/11 09:44:46;;;;;;;3.42;1.67;;;13.20;68.00;;;;;;6204643;28;20050;-80
2021/03/11 09:47:48;;;;;;;3.15;2.25;;;13.10;70.10;;;;;;6203851;28;20062;-79
2021/03/11 09:50:58;;;;;;;3.38;1.95;;;13.10;69.90;;;;;;6203854;28;20134;-79
2021/03/11 09:54:03;;;;;;;2.63;1.77;;;13.00;70.00;;;;;;6204148;28;20112;-79
2021/03/11 09:57:05;;;;;;;1.70;1.38;;;13.10;69.80;;;;;;6204301;28;20487;-79
2021/03/11 10:00:08;;;;;;;1.88;1.50;;;13.00;70.00;;;;;;6205177;28;20081;-79
2021/03/11 10:03:18;;;;;;;3.47;1.30;;;12.90;70.30;;;;;;6204906;28;20109;-79
2021/03/11 10:06:20;;;;;;;2.85;1.58;;;12.80;71.90;;;;;;6203284;28;20127;-75
2021/03/11 10:09:25;;;;;;;2.70;1.05;;;12.70;73.90;;;;;;6204676;28;20047;-78
2021/03/11 10:12:35;;;;;;;2.92;1.60;;;12.50;76.40;;;;;;6207777;28;20054;-80
2021/03/11 10:15:46;;;;;;;5.85;1.40;;;12.30;78.60;;;;;;6207111;28;20054;-79
2021/03/11 10:19:01;;;;;;;5.93;2.03;;;12.00;81.10;;;;;;6209249;28;20084;-79
2021/03/11 10:22:05;;;;;;;7.45;2.42;;;11.70;84.10;;;;;;6227970;28;20035;-77
2021/03/11 10:25:14;;;;;;;5.70;2.33;;;11.40;86.70;;;;;;6228323;28;20050;-77
2021/03/11 10:28:26;;;;;;;7.45;2.70;;;11.20;89.60;;;;;;6228583;28;20042;-79
2021/03/11 10:31:28;;;;;;;3.20;2.03;;;11.00;90.80;;;;;;6228202;28;20054;-78
2021/03/11 10:34:30;;;;;;;5.72;3.00;;;10.90;92.60;;;;;;6227949;28;20042;-81
2021/03/11 10:37:33;;;;;;;3.40;2.45;;;10.80;94.50;;;;;;6224980;28;20042;-81
2021/03/11 10:40:35;;;;;;;4.50;3.05;;;10.70;96.60;;;;;;6223987;28;20058;-80
2021/03/11 10:43:37;;;;;;;4.45;2.80;;;10.60;98.70;;;;;;6206281;28;20054;-79
2021/03/11 10:46:40;;;;;;;3.42;2.33;;;10.60;99.90;;;;;;6203776;28;20133;-78
2021/03/11 10:49:42;;;;;;;4.45;2.03;;;10.50;99.90;;;;;;6207249;28;20516;-79
2021/03/11 10:52:51;;;;;;;2.20;2.03;;;10.50;99.90;;;;;;6205940;28;20043;-79
2021/03/11 10:56:04;;;;;;;7.90;3.20;;;10.40;99.90;;;;;;6202770;28;20129;-79
2021/03/11 10:59:07;;;;;;;3.08;2.10;;;10.40;99.90;;;;;;6204987;28;20134;-78
2021/03/11 11:02:09;;;;;;;4.30;3.80;;;10.40;99.90;;;;;;6203845;28;20053;-78
2021/03/11 11:05:11;;;;;;;3.13;2.83;;;10.40;99.90;;;;;;6205073;28;20576;-79
2021/03/11 11:08:13;;;;;;;3.17;2.75;;;10.50;99.90;;;;;;6204810;28;20110;-80
2021/03/11 11:11:16;;;;;;;4.95;2.33;;;10.50;99.90;;;;;;6204641;28;20412;-80
2021/03/11 11:14:18;;;;;;;3.75;2.30;;;10.50;99.90;;;;;;6204351;28;20093;-79
2021/03/11 11:17:19;;;;;;;8.10;3.10;;;10.50;99.90;;;;;;6203473;28;20125;-78
2021/03/11 11:20:20;;;;;;;6.00;2.65;;;10.50;99.90;;;;;;6203854;28;20065;-77
2021/03/11 11:23:22;;;;;;;4.53;2.50;;;10.60;99.90;;;;;;6205492;28;20062;-79
2021/03/11 11:26:24;;;;;;;6.47;2.53;;;10.60;99.90;;;;;;6205796;28;20118;-77
2021/03/11 11:29:27;;;;;;;7.70;3.08;;;10.60;99.90;;;;;;6205376;28;20077;-79
2021/03/11 11:32:28;;;;;;;3.75;2.33;;;10.60;99.90;;;;;;6204756;28;20056;-78
2021/03/11 11:35:30;;;;;;;4.60;3.42;;;10.60;99.90;;;;;;6203522;28;20054;-78
2021/03/11 11:38:31;;;;;;;5.38;3.10;;;10.70;99.90;;;;;;6204101;28;20056;-79
2021/03/11 11:41:33;;;;;;;3.47;2.47;;;10.70;99.90;;;;;;6203002;28;20046;-77
2021/03/11 11:44:34;;;;;;;5.85;3.50;;;10.80;99.90;;;;;;6203824;28;20049;-78
2021/03/11 11:47:36;;;;;;;3.67;2.67;;;10.80;99.90;;;;;;6202963;28;20050;-82
2021/03/11 11:50:37;;;;;;;4.32;3.08;;;10.90;99.90;;;;;;6205904;28;20093;-79
2021/03/11 11:53:39;;;;;;;4.10;3.75;;;10.80;99.90;;;;;;6204328;28;20042;-79
2021/03/11 11:56:41;;;;;;;6.60;3.65;;;10.90;99.90;;;;;;6203752;28;20120;-78
2021/03/11 11:59:43;;;;;;;3.38;2.60;;;10.90;99.90;;;;;;6204702;28;20082;-78
2021/03/11 12:02:44;;;;;;;4.07;2.60;;;11.10;99.90;;;;;;6204612;28;20054;-79
2021/03/11 12:05:46;;;;;;;2.67;2.17;;;11.20;99.90;;;;;;6203585;28;20042;-80
2021/03/11 12:08:47;;;;;;;3.35;2.42;;;11.30;99.90;;;;;;6204798;28;20050;-77
2021/03/11 12:11:49;;;;;;;4.70;2.88;;;11.30;99.90;;;;;;6205279;28;20042;-81
2021/03/11 12:14:51;;;;;;;2.33;2.13;;;11.50;99.90;;;;;;6205254;28;20452;-82
2021/03/11 12:17:52;;;;;;;9.35;2.35;;;11.60;99.90;;;;;;6205704;28;20066;-78
2021/03/11 12:20:53;;;;;;;3.42;1.92;;;11.90;99.90;;;;;;6209009;28;20054;-78
2021/03/11 12:23:54;;;;;;;2.88;2.35;;;12.00;99.90;;;;;;6207797;28;20100;-79
2021/03/11 12:26:57;;;;;;;5.43;2.25;;;12.00;99.90;;;;;;6208191;28;20069;-80
2021/03/11 12:29:59;;;;;;;3.67;3.42;;;11.90;99.90;;;;;;6206036;28;20066;-78
2021/03/11 12:33:00;;;;;;;2.30;2.10;;;11.80;99.90;;;;;;6207563;28;20466;-79
2021/03/11 12:36:02;;;;;;;3.90;3.22;;;11.80;99.90;;;;;;6207374;28;20100;-78
2021/03/11 12:39:04;;;;;;;3.65;2.53;;;11.90;99.90;;;;;;6207895;28;20050;-77
2021/03/11 12:42:07;;;;;;;2.85;1.73;;;11.80;99.90;;;;;;6205122;28;20069;-78
2021/03/11 12:45:10;;;;;;;2.65;2.03;;;11.80;99.90;;;;;;6204257;28;20516;-76
2021/03/11 12:48:11;;;;;;;2.42;2.05;;;11.70;99.90;;;;;;6204332;28;20118;-79
2021/03/11 12:51:13;;;;;;;2.97;2.70;;;11.60;99.90;;;;;;6204882;28;20054;-79
2021/03/11 12:54:14;;;;;;;3.45;2.47;;;11.60;99.90;;;;;;6206301;28;20053;-78
2021/03/11 12:57:16;;;;;;;3.58;2.40;;;11.60;99.90;;;;;;6206852;28;20046;-79
2021/03/11 13:00:18;;;;;;;9.88;4.72;;;11.50;99.90;;;;;;6208405;28;20050;-79
2021/03/11 13:03:20;;;;;;;2.58;2.38;;;11.50;99.90;;;;;;6208524;28;20129;-79
2021/03/11 13:06:21;;;;;;;4.70;2.80;;;11.50;99.90;;;;;;6208578;28;20070;-79
2021/03/11 13:09:23;;;;;;;3.35;3.05;;;11.50;99.90;;;;;;6209372;28;20046;-79
2021/03/11 13:12:25;;;;;;;3.55;2.78;;;11.40;99.90;;;;;;6209445;28;20046;-78
2021/03/11 13:15:27;;;;;;;3.63;3.33;;;11.40;99.90;;;;;;6207157;28;20054;-78
2021/03/11 13:18:28;;;;;;;7.85;2.97;;;11.40;99.90;;;;;;6205607;28;20061;-78
2021/03/11 13:21:29;;;;;;;2.80;2.50;;;11.50;99.90;;;;;;6204367;28;20054;-78
2021/03/11 13:24:31;;;;;;;3.55;3.03;;;11.60;99.90;;;;;;6203916;28;20097;-80
2021/03/11 13:27:34;;;;;;;4.13;3.33;;;11.70;99.90;;;;;;6202813;28;20488;-80
2021/03/11 13:30:35;;;;;;;6.05;3.95;;;11.80;99.90;;;;;;6203225;28;20137;-80
2021/03/11 13:33:36;;;;;;;4.55;2.90;;;11.80;99.90;;;;;;6204647;28;20246;-79
2021/03/11 13:36:38;;;;;;;4.97;2.58;;;11.80;99.90;;;;;;6203504;28;20050;-79
2021/03/11 13:39:40;;;;;;;4.20;3.15;;;11.80;99.90;;;;;;6203078;28;20060;-77
2021/03/11 13:42:42;;;;;;;3.20;2.33;;;11.80;99.90;;;;;;6205890;28;20074;-77
2021/03/11 13:45:45;;;;;;;4.60;3.53;;;11.80;99.90;;;;;;6201713;28;20093;-79
2021/03/11 13:48:46;;;;;;;6.18;5.53;;;11.90;99.90;;;;;;6207482;28;20182;-79
2021/03/11 13:51:47;;;;;;;19.70;14.75;;;11.90;99.90;;;;;;6209289;28;20058;-80
2021/03/11 13:54:50;;;;;;;4.28;3.88;;;11.90;99.90;;;;;;6209043;28;20046;-83
2021/03/11 13:57:53;;;;;;;8.07;3.42;;;11.80;99.90;;;;;;6192500;28;20073;-80
2021/03/11 14:00:54;;;;;;;7.38;4.07;;;11.80;99.90;;;;;;6190078;28;20051;-79
2021/03/11 14:03:55;;;;;;;6.45;5.18;;;11.70;99.90;;;;;;6194946;28;20567;-81
2021/03/11 14:06:57;;;;;;;14.55;10.95;;;11.60;99.90;;;;;;6190188;28;20046;-79
2021/03/11 14:09:58;;;;;;;49.40;34.80;;;11.60;99.90;;;;;;6192080;28;20070;-82
2021/03/11 14:13:00;;;;;;;8.68;7.88;;;11.50;99.90;;;;;;6200798;28;20081;-81
2021/03/11 14:16:02;;;;;;;4.35;3.95;;;11.50;99.90;;;;;;6197921;28;20417;-82
2021/03/11 14:19:03;;;;;;;7.72;4.60;;;11.60;99.90;;;;;;6198027;28;20497;-83
2021/03/11 14:22:05;;;;;;;5.68;5.07;;;11.50;99.90;;;;;;6201361;28;20058;-81
2021/03/11 14:25:07;;;;;;;3.25;2.92;;;11.40;99.90;;;;;;6192443;28;20070;-78
2021/03/11 14:28:10;;;;;;;8.80;7.93;;;11.40;99.90;;;;;;6204309;28;20054;-79
2021/03/11 14:31:11;;;;;;;8.40;7.70;;;11.40;99.90;;;;;;6195433;28;20178;-78
2021/03/11 14:34:12;;;;;;;3.97;3.65;;;11.40;99.90;;;;;;6203046;28;20068;-80
2021/03/11 14:37:15;;;;;;;4.45;4.03;;;11.40;99.90;;;;;;6199069;28;20043;-81
2021/03/11 14:40:16;;;;;;;3.50;2.58;;;11.40;99.90;;;;;;6202937;28;20042;-79
2021/03/11 14:43:19;;;;;;;6.00;2.65;;;11.40;99.90;;;;;;6203437;28;20081;-79
2021/03/11 14:46:20;;;;;;;2.20;2.00;;;11.40;99.90;;;;;;6212117;23;20043;-83
2021/03/11 14:49:22;;;;;;;2.33;1.90;;;11.30;99.90;;;;;;6167240;28;20047;-82
2021/03/11 14:52:23;;;;;;;4.15;1.80;;;11.30;99.90;;;;;;6165180;28;20047;-83
2021/03/11 14:55:27;;;;;;;2.75;1.67;;;11.50;99.90;;;;;;6168348;28;20130;-83
2021/03/11 14:58:29;;;;;;;3.85;1.80;;;11.40;99.90;;;;;;6162924;28;20043;-83
2021/03/11 15:01:31;;;;;;;64.13;48.47;;;11.30;99.90;;;;;;6165833;28;20051;-83
2021/03/11 15:04:32;;;;;;;17.77;11.95;;;11.30;99.90;;;;;;6165543;28;20055;-83
2021/03/11 15:07:34;;;;;;;3.00;2.67;;;11.30;99.90;;;;;;6167008;28;20115;-83
2021/03/11 15:10:35;;;;;;;3.22;2.35;;;11.30;99.90;;;;;;6165012;28;20066;-83
2021/03/11 15:13:39;;;;;;;3.58;1.60;;;11.20;99.90;;;;;;6166843;28;20039;-82
2021/03/11 15:16:42;;;;;;;5.93;3.53;;;11.30;99.90;;;;;;6163495;28;20054;-83
2021/03/11 15:19:43;;;;;;;6.00;2.88;;;11.20;99.90;;;;;;6164962;28;20088;-83
2021/03/11 15:22:44;;;;;;;4.88;2.40;;;11.10;99.90;;;;;;6160676;28;20074;-81
2021/03/11 15:25:46;;;;;;;2.03;1.80;;;11.10;99.90;;;;;;6168065;28;20078;-82
2021/03/11 15:28:48;;;;;;;5.43;2.25;;;11.10;99.90;;;;;;6156102;28;20044;-81
2021/03/11 15:31:49;;;;;;;3.83;1.98;;;11.10;99.90;;;;;;6167107;28;20050;-83
2021/03/11 15:34:51;;;;;;;5.40;2.83;;;11.10;99.90;;;;;;6149932;28;20496;-81
2021/03/11 15:37:52;;;;;;;5.45;2.78;;;11.00;99.90;;;;;;6164044;28;20043;-82
2021/03/11 15:40:57;;;;;;;8.82;5.13;;;11.00;99.90;;;;;;6156813;28;20791;-81
2021/03/11 15:44:00;;;;;;;4.63;3.42;;;11.00;99.90;;;;;;6152265;28;20048;-83
2021/03/11 15:47:01;;;;;;;5.20;3.00;;;11.10;99.90;;;;;;6168936;28;20058;-81
2021/03/11 15:50:04;;;;;;;2.13;1.88;;;11.20;99.90;;;;;;6159147;28;20052;-82